Flight Track Log - Related Links

Times and Time Zones

All times are in EDT time to prevent confusion due to time zone crossing. See the EJA102 flight status page for this flight to view local times or setup timezone preferences in your user account.

Time Position Orientation Groundspeed Altitude Reporting Facility
EDT Latitude Longitude Course Direction KTS MPH feet Rate Location/Type
Mon 09:48:56 33.9500 -83.3667 338° Northwest 165 190 2,400  Level Atlanta TRACON
Mon 09:49:50 34.0000 -83.3833 345° North 199 229 4,400 1,474 Climbing Atlanta TRACON
Mon 09:50:50 34.0500 -83.4000 345° North 223 257 5,200 1,145 Climbing Atlanta TRACON
Mon 09:51:40 34.1036 -83.4142 348° North 247 284 6,500 1,582 Climbing Atlanta Center
Mon 09:52:40 34.1811 -83.4361 347° North 271 312 8,100 1,700 Climbing Atlanta Center
Mon 09:53:40 34.2625 -83.4556 349° North 290 334 9,900 1,450 Climbing Atlanta Center
Mon 09:54:00 34.5441 -83.4970 338° Northwest  Level FlightAware Approximate
Mon 09:54:40 34.3461 -83.4778 348° North 296 341 11,000  Level Atlanta Center
Mon 09:55:40 34.4464 -83.5022 349° North 338 389 11,000  Level Atlanta Center
Mon 09:56:40 34.5467 -83.5294 347° North 357 411 11,000 700 Level Atlanta Center
Mon 09:57:40 34.6489 -83.5539 349° North 369 425 12,400 1,700 Climbing Atlanta Center
Mon 09:58:40 34.7514 -83.5836 347° North 374 430 14,400 1,950 Climbing Atlanta Center
Mon 09:59:40 34.8494 -83.6086 348° North 369 425 16,300 1,800 Climbing Atlanta Center
Mon 10:00:40 34.9456 -83.6383 346° North 363 418 18,000 1,750 Climbing Atlanta Center
Mon 10:01:40 35.0417 -83.6658 347° North 358 412 19,800 1,350 Climbing Atlanta Center
Mon 10:02:40 35.1397 -83.6908 348° North 358 412 20,700 950 Climbing Atlanta Center
Mon 10:03:40 35.2422 -83.7183 348° North 363 418 21,700 950 Climbing Atlanta Center
Mon 10:04:40 35.3486 -83.7486 347° North 374 430 22,600 900 Climbing Atlanta Center
Mon 10:05:40 35.4531 -83.7736 349° North 374 430 23,500 950 Climbing Atlanta Center
Mon 10:06:40 35.5575 -83.8039 347° North 374 430 24,500 950 Climbing Atlanta Center
Mon 10:07:40 35.6639 -83.8317 348° North 374 430 25,400 900 Climbing Atlanta Center
Mon 10:08:40 35.7703 -83.8569 349° North 374 430 26,300 950 Climbing Atlanta Center
Mon 10:09:40 35.8747 -83.8875 347° North 374 430 27,300 490 Climbing Atlanta Center
Mon 10:12:08 36.1697 -83.8478 North 420 483 28,000 200 Climbing Indianapolis Center
Mon 10:13:10 36.2897 -83.8281 North 432 497 28,000  Level Indianapolis Center
Mon 10:14:12 36.4111 -83.8064 North 439 505 28,000  Level Indianapolis Center
Mon 10:15:14 36.5444 -83.7844 North 452 520 28,000  Level Indianapolis Center
Mon 10:16:16 36.6689 -83.7622 North 449 517 28,000  Level Indianapolis Center
Mon 10:17:18 36.7931 -83.7414 North 448 516 28,000  Level Indianapolis Center
Mon 10:18:20 36.9189 -83.7186 North 451 519 28,000  Level Indianapolis Center
Mon 10:19:22 37.0436 -83.6961 North 450 518 28,000  Level Indianapolis Center
Mon 10:20:24 37.1914 -83.6692 North 456 525 28,000  Level Indianapolis Center
Mon 10:21:25 37.3181 -83.6461 North 458 527 28,000 -98 Level Indianapolis Center
Mon 10:22:27 37.4450 -83.6228 North 458 527 27,800 -1,306 Descending Indianapolis Center
Mon 10:23:29 37.5733 -83.6011 North 462 532 25,300 -1,839 Descending Indianapolis Center
Mon 10:24:31 37.6950 -83.6311 349° North 445 512 24,000 -1,210 Descending Indianapolis Center
Mon 10:25:33 37.7994 -83.7008 332° Northwest 426 490 22,800 -1,355 Descending Indianapolis Center
Mon 10:26:35 37.9028 -83.7733 331° Northwest 423 487 21,200 -1,790 Descending Indianapolis Center
Mon 10:27:37 38.0197 -83.8578 330° Northwest 415 478 19,100 -1,790 Descending Indianapolis Center
Mon 10:28:39 38.1169 -83.9281 330° Northwest 405 466 17,500 -1,610 Descending Indianapolis Center
Mon 10:29:40 38.2131 -83.9947 331° Northwest 394 453 15,800 -1,610 Descending Indianapolis Center
Mon 10:30:42 38.3039 -84.0617 330° Northwest 378 435 14,200 -1,548 Descending Indianapolis Center
Mon 10:31:44 38.3958 -84.1275 331° Northwest 379 436 12,600 -1,065 Descending Indianapolis Center
Mon 10:32:46 38.4900 -84.1664 342° North 362 417 12,000 -919 Descending Indianapolis Center
Mon 10:33:48 38.6133 -84.1681 359° North 376 433 10,700 -1,016 Descending Indianapolis Center
Mon 10:34:50 38.7081 -84.1719 358° North 349 402 9,900 -390 Descending Indianapolis Center
Mon 10:35:51 38.8019 -84.1919 351° North 344 396 9,900 -878 Level Indianapolis Center
Mon 10:36:53 38.8772 -84.2292 339° North 299 344 8,100 -1,935 Descending Indianapolis Center
Mon 10:37:55 38.9486 -84.2619 340° North 279 321 5,900 -1,548 Descending Indianapolis Center
Mon 10:38:57 39.0111 -84.3006 334° Northwest 260 299 4,900 -1,113 Descending Indianapolis Center
Mon 10:39:59 39.0614 -84.3317 334° Northwest 218 251 3,600 -1,220 Descending Indianapolis Center
Mon 10:41:00 39.1153 -84.3675 333° Northwest 206 237 2,400 -1,180 Descending Indianapolis Center
Mon 10:43:00 39.1033 -84.4186 253° West  Level Estimated
Mon 10:50:00 39.1033 -84.4186 345° North  Level Estimated

Login

Don't have an account? Register now (free) for customized features, flight alerts, and more!